首页
METAR-TAF:

METAR-TAF

机场 :

Hall Beach, 努那武特, 加拿大

纬度: 68-47N, 经度: 081-15W, 海拔: 8米

当前天气观测

该预报发布于38分钟前的00:16 UTC
风速20节,风向南转西南
温度 -18°C
湿度 84%
气压 1015 hPa
能見度: 1.6公里
散云层高于400英尺
多云层高于1300英尺
小雪

METAR: CYUX 110016Z AUTO 20020KT 1SM -SN SCT004 BKN013 M18/M20 A2998 RMK SLP156

时间: 19:54 (00:54 UTC)

预报

该预报发布于15分钟前的00:39 UTC
预报有效从11日的 01点(UTC)到 11日的 13点(UTC)
风速15节,风向南转西南,有时为25节阵风
能見度: 1.2公里
阴天层高于400英尺
小雪, 高吹雪
短暂存在
从 11日的 01点(UTC)到 11日的 05点(UTC)
散云层高于400英尺
阴天层高于1000英尺
小雪, 高吹雪
成为
从 11日的 03点(UTC)到 11日的 05点(UTC)
风速25节,风向,有时为35节阵风
从 11日的 0500点(UTC)
风速25节,风向,有时为35节阵风
能見度: 0.8公里
阴天层高于500英尺
小雪, 高吹雪

TAF: CYUX 110039Z 1101/1113 20015G25KT 3/4SM -SN BLSN OVC004 TEMPO 1101/1105 11/2SM -SN BLSN SCT004 OVC010 BECMG 1103/1105 19025G35KT FM110500 19025G35KT 1/2SM -SN BLSN OVC005 RMK FCST BASED ON AUTO OBS. NXT FCST BY 110700Z

超过4000个机场的气象观测和天气预报(METAR&TAF报告)。

可查询的气象台以黄色和红色小点在地图上表示。

将鼠标移到小点上方,可查看气象台名称。

然后点击查看天气观测和预报。

如需切换地图:点击带黑十字的绿色按钮放大地图;点击带横线的绿色按钮缩小地图;或者点击绿色箭头查看邻近地区的地图。


METAR-TAF: